Time;durP1;ratioP1;P1;durP2;ratioP2;P2;SDS_P1;SDS_P2;PMS_P1;PMS_P2;Temp;Humidity;BMP_temperature;BMP_pressure;BME280_temperature;BME280_humidity;BME280_pressure;Samples;Min_cycle;Max_cycle;Signal;HPM_P1;HPM_P2
2023/10/22 02:27:10;;;;;;;22.95;2.83;;;;;;;;;;6211779;23;20044;-85
2023/10/22 02:29:37;;;;;;;20.95;2.78;;;;;;;;;;6186911;23;20422;-86
2023/10/22 02:32:04;;;;;;;25.70;3.38;;;;;;;;;;6186587;23;20009;-84
2023/10/22 02:34:31;;;;;;;27.25;3.63;;;;;;;;;;6186936;23;20013;-84
2023/10/22 02:36:58;;;;;;;28.90;3.00;;;;;;;;;;6187468;23;20037;-84
2023/10/22 02:39:25;;;;;;;22.73;2.85;;;;;;;;;;6185962;23;20012;-84
2023/10/22 02:41:52;;;;;;;22.58;2.88;;;;;;;;;;6186682;23;20454;-84
2023/10/22 02:44:19;;;;;;;17.90;2.40;;;;;;;;;;6186278;23;20016;-84
2023/10/22 02:46:46;;;;;;;18.80;2.33;;;;;;;;;;6186956;23;20020;-86
2023/10/22 02:49:13;;;;;;;19.60;2.70;;;;;;;;;;6186467;23;20013;-84
2023/10/22 02:51:39;;;;;;;26.77;2.38;;;;;;;;;;6186686;23;20028;-85
2023/10/22 02:54:06;;;;;;;18.25;2.30;;;;;;;;;;6186833;23;20008;-87
2023/10/22 02:56:33;;;;;;;22.40;2.92;;;;;;;;;;6186854;23;20013;-84
2023/10/22 02:59:00;;;;;;;16.70;2.13;;;;;;;;;;6186629;23;20012;-84
2023/10/22 03:01:27;;;;;;;20.50;2.53;;;;;;;;;;6185924;23;20104;-84
2023/10/22 03:03:54;;;;;;;17.30;2.78;;;;;;;;;;6186727;23;20017;-84
2023/10/22 03:06:21;;;;;;;16.17;2.05;;;;;;;;;;6186147;23;20066;-85
2023/10/22 03:08:48;;;;;;;17.75;2.08;;;;;;;;;;6186904;23;20017;-84
2023/10/22 03:11:16;;;;;;;17.27;1.75;;;;;;;;;;6186348;23;20017;-85
2023/10/22 03:13:44;;;;;;;17.60;1.85;;;;;;;;;;6186234;23;20096;-84
2023/10/22 03:16:14;;;;;;;14.80;1.52;;;;;;;;;;6186286;23;20020;-84
2023/10/22 03:18:44;;;;;;;19.35;2.45;;;;;;;;;;6186912;23;20604;-84
2023/10/22 03:21:11;;;;;;;17.50;2.30;;;;;;;;;;6186116;23;20498;-84
2023/10/22 03:23:41;;;;;;;16.90;1.75;;;;;;;;;;6186486;23;20103;-84
2023/10/22 03:26:11;;;;;;;13.43;1.90;;;;;;;;;;6186315;23;20022;-84
2023/10/22 03:28:39;;;;;;;19.70;2.20;;;;;;;;;;6186538;23;20327;-84
2023/10/22 03:31:06;;;;;;;18.10;2.28;;;;;;;;;;6186385;23;20017;-85
2023/10/22 03:33:33;;;;;;;20.95;2.67;;;;;;;;;;6186235;23;20017;-84
2023/10/22 03:36:01;;;;;;;21.00;2.00;;;;;;;;;;6186925;23;20090;-85
2023/10/22 03:38:28;;;;;;;25.00;2.30;;;;;;;;;;6185727;23;20109;-84
2023/10/22 03:40:59;;;;;;;17.63;2.40;;;;;;;;;;6186069;23;20012;-84
2023/10/22 03:43:28;;;;;;;20.88;1.73;;;;;;;;;;6185955;23;20040;-85
2023/10/22 03:45:55;;;;;;;17.42;2.10;;;;;;;;;;6186455;23;20083;-84
2023/10/22 03:48:23;;;;;;;15.15;1.45;;;;;;;;;;6185481;23;20012;-84
2023/10/22 03:50:51;;;;;;;14.85;1.65;;;;;;;;;;6186333;23;20009;-86
2023/10/22 03:53:18;;;;;;;16.60;2.25;;;;;;;;;;6185933;23;20100;-86
2023/10/22 03:55:45;;;;;;;14.18;1.98;;;;;;;;;;6186153;23;20075;-86
2023/10/22 03:58:12;;;;;;;9.80;1.73;;;;;;;;;;6185758;23;20322;-86
2023/10/22 04:00:39;;;;;;;10.68;1.63;;;;;;;;;;6185909;23;20146;-86
2023/10/22 04:03:05;;;;;;;15.82;1.88;;;;;;;;;;6186411;23;20019;-86
2023/10/22 04:05:33;;;;;;;18.90;2.05;;;;;;;;;;6186764;23;20024;-86
2023/10/22 04:07:59;;;;;;;16.45;2.08;;;;;;;;;;6186969;23;20016;-86
2023/10/22 04:10:26;;;;;;;21.63;2.35;;;;;;;;;;6185774;23;20066;-87
2023/10/22 04:12:53;;;;;;;14.98;2.35;;;;;;;;;;6186642;23;20040;-86
2023/10/22 04:15:20;;;;;;;14.57;2.08;;;;;;;;;;6186195;23;20020;-86
2023/10/22 04:17:47;;;;;;;16.08;1.63;;;;;;;;;;6186596;23;20095;-85
2023/10/22 04:20:14;;;;;;;19.58;2.08;;;;;;;;;;6185910;23;20016;-86
2023/10/22 04:22:42;;;;;;;23.67;2.40;;;;;;;;;;6186354;23;20026;-85
2023/10/22 04:25:11;;;;;;;15.40;2.13;;;;;;;;;;6186077;23;20443;-86
2023/10/22 04:27:37;;;;;;;27.83;3.67;;;;;;;;;;6186357;23;20072;-86
2023/10/22 04:30:05;;;;;;;28.13;3.08;;;;;;;;;;6186579;23;20063;-86
2023/10/22 04:32:33;;;;;;;23.63;2.30;;;;;;;;;;6210560;23;20068;-86
2023/10/22 04:35:00;;;;;;;21.23;2.33;;;;;;;;;;6186837;23;20315;-86
2023/10/22 04:37:29;;;;;;;22.40;2.97;;;;;;;;;;6185789;23;20044;-86
2023/10/22 04:39:56;;;;;;;29.73;3.33;;;;;;;;;;6186485;23;20116;-86
2023/10/22 04:42:27;;;;;;;19.65;2.08;;;;;;;;;;6185920;23;20025;-86
2023/10/22 04:44:55;;;;;;;24.35;2.78;;;;;;;;;;6186652;23;20382;-85
2023/10/22 04:47:22;;;;;;;14.30;2.20;;;;;;;;;;6185816;23;20023;-86
2023/10/22 04:49:52;;;;;;;23.05;2.05;;;;;;;;;;6186446;23;20009;-85
2023/10/22 04:52:33;;;;;;;19.20;2.17;;;;;;;;;;6185936;23;20315;-86
2023/10/22 04:55:01;;;;;;;24.98;2.70;;;;;;;;;;6186741;23;20016;-84
2023/10/22 04:57:28;;;;;;;19.20;2.58;;;;;;;;;;6185795;23;20021;-85
2023/10/22 04:59:56;;;;;;;25.65;2.75;;;;;;;;;;6186377;23;20091;-85
2023/10/22 05:02:23;;;;;;;21.90;2.80;;;;;;;;;;6186034;23;20336;-85
2023/10/22 05:04:51;;;;;;;20.27;2.53;;;;;;;;;;6188683;23;20083;-85
2023/10/22 05:07:18;;;;;;;15.82;2.60;;;;;;;;;;6187597;23;20017;-86
2023/10/22 05:09:45;;;;;;;23.50;2.90;;;;;;;;;;6188231;23;20013;-85
2023/10/22 05:12:12;;;;;;;26.55;2.47;;;;;;;;;;6212854;23;20096;-86
2023/10/22 05:14:39;;;;;;;20.02;2.45;;;;;;;;;;6188222;23;20018;-85
2023/10/22 05:17:06;;;;;;;25.08;2.40;;;;;;;;;;6187965;23;20012;-86
2023/10/22 05:19:34;;;;;;;16.63;2.15;;;;;;;;;;6188092;23;20016;-85
2023/10/22 05:22:04;;;;;;;18.17;2.45;;;;;;;;;;6188499;23;20056;-84
2023/10/22 05:24:32;;;;;;;23.80;2.63;;;;;;;;;;6187387;23;20017;-85
2023/10/22 05:26:59;;;;;;;22.38;2.70;;;;;;;;;;6188394;23;20012;-86
2023/10/22 05:29:28;;;;;;;21.35;2.10;;;;;;;;;;6187184;23;20029;-86
2023/10/22 05:31:54;;;;;;;;;;;;;;;;;;6188786;23;20481;-85
2023/10/22 05:34:21;;;;;;;18.30;2.03;;;;;;;;;;6187803;23;20284;-85
2023/10/22 05:36:48;;;;;;;14.50;1.67;;;;;;;;;;6187959;23;20017;-85
2023/10/22 05:39:15;;;;;;;14.27;1.70;;;;;;;;;;6187599;23;20039;-85
2023/10/22 05:41:42;;;;;;;16.83;2.00;;;;;;;;;;6187668;23;20131;-85
2023/10/22 05:44:09;;;;;;;13.40;1.67;;;;;;;;;;6187368;23;20009;-85
2023/10/22 05:46:36;;;;;;;13.77;1.80;;;;;;;;;;6187953;23;20445;-85
2023/10/22 05:49:03;;;;;;;13.27;1.80;;;;;;;;;;6188356;23;20298;-85
2023/10/22 05:51:31;;;;;;;22.52;1.98;;;;;;;;;;6187353;23;20040;-85
2023/10/22 05:53:58;;;;;;;9.70;1.70;;;;;;;;;;6188217;23;20042;-85
2023/10/22 05:56:28;;;;;;;13.50;2.00;;;;;;;;;;6187147;23;20452;-85
2023/10/22 05:58:55;;;;;;;15.13;1.83;;;;;;;;;;6188093;23;20441;-85
2023/10/22 06:01:22;;;;;;;15.57;1.88;;;;;;;;;;6187633;23;20017;-85
2023/10/22 06:03:49;;;;;;;19.05;2.05;;;;;;;;;;6190042;23;20079;-85
2023/10/22 06:06:20;;;;;;;13.50;1.88;;;;;;;;;;6188711;23;20406;-84
2023/10/22 06:08:47;;;;;;;23.45;2.85;;;;;;;;;;6190040;23;20012;-85
2023/10/22 06:11:14;;;;;;;21.25;2.42;;;;;;;;;;6189276;23;20321;-85
2023/10/22 06:13:41;;;;;;;16.50;2.20;;;;;;;;;;6188966;23;20071;-85
2023/10/22 06:16:09;;;;;;;28.38;2.60;;;;;;;;;;6188701;23;20445;-84
2023/10/22 06:18:37;;;;;;;17.83;2.10;;;;;;;;;;6189832;23;20020;-85
2023/10/22 06:21:15;;;;;;;19.25;2.55;;;;;;;;;;6189046;23;20009;-85
2023/10/22 06:23:42;;;;;;;30.67;2.30;;;;;;;;;;6189811;23;20019;-84
2023/10/22 06:26:10;;;;;;;15.02;3.08;;;;;;;;;;6189042;23;20324;-85
2023/10/22 06:28:39;;;;;;;19.60;2.83;;;;;;;;;;6189579;23;20074;-85
2023/10/22 06:31:12;;;;;;;19.13;2.90;;;;;;;;;;6189026;23;20019;-85
2023/10/22 06:33:41;;;;;;;27.40;2.65;;;;;;;;;;6189139;23;20031;-85
2023/10/22 06:36:19;;;;;;;21.10;3.08;;;;;;;;;;6189219;23;20075;-84
2023/10/22 06:38:48;;;;;;;26.63;3.40;;;;;;;;;;6189767;23;20040;-84
2023/10/22 06:41:18;;;;;;;18.70;2.50;;;;;;;;;;6188761;23;20024;-84
2023/10/22 06:43:45;;;;;;;23.80;3.40;;;;;;;;;;6189588;23;20019;-85
2023/10/22 06:46:13;;;;;;;29.67;2.97;;;;;;;;;;6188767;23;20441;-84
2023/10/22 06:48:42;;;;;;;21.73;2.90;;;;;;;;;;6189713;23;20040;-85
2023/10/22 06:51:11;;;;;;;16.65;2.85;;;;;;;;;;6188911;23;20015;-84
2023/10/22 06:53:39;;;;;;;20.25;2.88;;;;;;;;;;6189464;23;20329;-84
2023/10/22 06:56:06;;;;;;;17.63;2.67;;;;;;;;;;6188687;23;20079;-84
2023/10/22 06:58:33;;;;;;;20.95;2.35;;;;;;;;;;6189439;23;20016;-84
2023/10/22 07:01:04;;;;;;;20.60;2.47;;;;;;;;;;6189152;23;20013;-84
2023/10/22 07:03:33;;;;;;;16.48;2.10;;;;;;;;;;6214284;23;20016;-84
2023/10/22 07:06:00;;;;;;;19.65;1.80;;;;;;;;;;6189657;23;20024;-78
2023/10/22 07:08:29;;;;;;;18.90;2.95;;;;;;;;;;6213287;23;20017;-85
2023/10/22 07:10:57;;;;;;;10.93;2.03;;;;;;;;;;6188307;23;20012;-86
2023/10/22 07:13:24;;;;;;;12.93;1.83;;;;;;;;;;6188082;23;20023;-85
2023/10/22 07:15:52;;;;;;;17.20;2.38;;;;;;;;;;6188926;23;20055;-84
2023/10/22 07:18:20;;;;;;;13.55;2.20;;;;;;;;;;6213501;23;20512;-83
2023/10/22 07:20:48;;;;;;;22.08;2.78;;;;;;;;;;6189011;23;20016;-84
2023/10/22 07:23:15;;;;;;;21.33;2.70;;;;;;;;;;6188016;23;20409;-85
2023/10/22 07:25:43;;;;;;;22.85;3.10;;;;;;;;;;6188925;23;20441;-86
2023/10/22 07:28:12;;;;;;;10.85;1.83;;;;;;;;;;6185717;23;20009;-84
2023/10/22 07:30:45;;;;;;;;;;;;;;;;;;6187558;23;20027;-85
2023/10/22 07:33:12;;;;;;;17.77;2.63;;;;;;;;;;6186570;23;19966;-87
2023/10/22 07:35:39;;;;;;;16.00;3.03;;;;;;;;;;6185251;23;20067;-86
2023/10/22 07:38:06;;;;;;;16.73;2.33;;;;;;;;;;6186381;23;20437;-86
2023/10/22 07:40:35;;;;;;;16.27;3.05;;;;;;;;;;6187229;23;20429;-84
2023/10/22 07:43:04;;;;;;;20.65;3.10;;;;;;;;;;6185985;23;20017;-86
2023/10/22 07:45:31;;;;;;;15.85;2.60;;;;;;;;;;6186409;23;20028;-86
2023/10/22 07:47:58;;;;;;;18.40;2.63;;;;;;;;;;6187519;23;20008;-86
2023/10/22 07:50:25;;;;;;;19.83;2.40;;;;;;;;;;6186697;23;20024;-86
2023/10/22 07:52:52;;;;;;;15.73;2.63;;;;;;;;;;6186583;23;20016;-85
2023/10/22 07:55:19;;;;;;;17.75;2.60;;;;;;;;;;6183491;23;20023;-85
2023/10/22 07:57:45;;;;;;;14.70;2.78;;;;;;;;;;6186577;23;20024;-84
2023/10/22 08:00:14;;;;;;;17.13;2.33;;;;;;;;;;6186370;23;20048;-86
2023/10/22 08:02:40;;;;;;;15.52;3.15;;;;;;;;;;6187158;23;20017;-86
2023/10/22 08:05:09;;;;;;;16.98;3.40;;;;;;;;;;6186035;23;20392;-86
2023/10/22 08:07:36;;;;;;;20.73;3.63;;;;;;;;;;6187310;23;20020;-82
2023/10/22 08:10:03;;;;;;;20.73;3.85;;;;;;;;;;6185923;23;20091;-84
2023/10/22 08:12:30;;;;;;;16.65;3.22;;;;;;;;;;6186454;23;20020;-84
2023/10/22 08:14:57;;;;;;;17.80;2.90;;;;;;;;;;6186569;23;20012;-84
2023/10/22 08:17:23;;;;;;;19.92;4.07;;;;;;;;;;6210056;23;20092;-85
2023/10/22 08:19:50;;;;;;;17.17;3.30;;;;;;;;;;6186311;23;20013;-85
2023/10/22 08:22:18;;;;;;;21.00;3.35;;;;;;;;;;6186082;23;20092;-84
2023/10/22 08:24:49;;;;;;;21.52;4.05;;;;;;;;;;6186327;23;20107;-85
2023/10/22 08:27:15;;;;;;;18.35;4.47;;;;;;;;;;6185988;23;20028;-84
2023/10/22 08:29:42;;;;;;;12.18;3.17;;;;;;;;;;6186568;23;20062;-84
2023/10/22 08:32:09;;;;;;;14.18;3.63;;;;;;;;;;6185842;23;20039;-85
2023/10/22 08:34:36;;;;;;;15.63;3.33;;;;;;;;;;6186579;23;20096;-85
2023/10/22 08:37:04;;;;;;;18.80;3.75;;;;;;;;;;6186056;23;20020;-84
2023/10/22 08:39:31;;;;;;;15.25;3.33;;;;;;;;;;6186631;23;20016;-84
2023/10/22 08:42:01;;;;;;;8.55;2.75;;;;;;;;;;6185946;23;20071;-84
2023/10/22 08:44:34;;;;;;;16.00;2.60;;;;;;;;;;6185744;23;20029;-85
2023/10/22 08:47:03;;;;;;;17.83;2.75;;;;;;;;;;6185931;23;20016;-85
2023/10/22 08:49:39;;;;;;;15.27;2.20;;;;;;;;;;6185898;23;20024;-84
2023/10/22 08:52:09;;;;;;;18.48;2.63;;;;;;;;;;6185441;23;20020;-84
2023/10/22 08:54:37;;;;;;;8.50;2.03;;;;;;;;;;6211326;23;20027;-85
2023/10/22 08:57:05;;;;;;;13.90;2.23;;;;;;;;;;6185309;23;20087;-83
2023/10/22 08:59:37;;;;;;;12.35;2.15;;;;;;;;;;6212117;23;20095;-84
2023/10/22 09:02:15;;;;;;;9.20;2.08;;;;;;;;;;6185905;23;20017;-84
2023/10/22 09:04:42;;;;;;;9.00;1.80;;;;;;;;;;6185480;23;20040;-83
2023/10/22 09:07:09;;;;;;;14.32;2.25;;;;;;;;;;6185029;23;20013;-83
2023/10/22 09:09:38;;;;;;;12.20;1.70;;;;;;;;;;6210909;23;20036;-83
2023/10/22 09:12:10;;;;;;;10.63;1.67;;;;;;;;;;6184940;23;20024;-83
2023/10/22 09:14:37;;;;;;;13.15;1.67;;;;;;;;;;6186169;23;20437;-86
2023/10/22 09:17:17;;;;;;;10.90;1.70;;;;;;;;;;6235042;23;20024;-83
2023/10/22 09:19:49;;;;;;;11.93;1.40;;;;;;;;;;6210724;23;20075;-84
2023/10/22 09:22:23;;;;;;;12.13;1.65;;;;;;;;;;6185276;23;20055;-84
2023/10/22 09:24:54;;;;;;;14.15;2.03;;;;;;;;;;6186014;23;20020;-84
2023/10/22 09:27:25;;;;;;;10.02;1.60;;;;;;;;;;6185207;23;20049;-84
2023/10/22 09:29:53;;;;;;;11.70;1.83;;;;;;;;;;6185670;23;20040;-84
2023/10/22 09:32:21;;;;;;;12.20;1.95;;;;;;;;;;6185585;23;20027;-84
2023/10/22 09:34:48;;;;;;;10.30;1.83;;;;;;;;;;6185924;23;20024;-84
2023/10/22 09:37:15;;;;;;;10.85;1.70;;;;;;;;;;6185288;23;20259;-84
2023/10/22 09:39:43;;;;;;;11.25;1.33;;;;;;;;;;6210461;23;20334;-85
2023/10/22 09:42:15;;;;;;;8.57;1.50;;;;;;;;;;6184807;23;20023;-85
2023/10/22 09:44:44;;;;;;;13.77;2.03;;;;;;;;;;6186273;23;20043;-84
2023/10/22 09:47:22;;;;;;;11.77;1.90;;;;;;;;;;6184935;23;20020;-84
2023/10/22 09:50:04;;;;;;;12.38;1.52;;;;;;;;;;6210667;23;20498;-84
2023/10/22 09:52:35;;;;;;;9.57;1.77;;;;;;;;;;6185099;23;20047;-84
2023/10/22 09:55:04;;;;;;;11.95;1.60;;;;;;;;;;6186797;23;20023;-84
2023/10/22 09:57:33;;;;;;;16.55;1.90;;;;;;;;;;6187086;23;20028;-84
2023/10/22 10:00:07;;;;;;;;;;;;;;;;;;6187255;23;20059;-84
2023/10/22 10:02:35;;;;;;;8.60;1.23;;;;;;;;;;6186092;23;20313;-85
2023/10/22 10:05:03;;;;;;;7.43;1.15;;;;;;;;;;6187416;23;20035;-84
2023/10/22 10:07:31;;;;;;;7.82;0.90;;;;;;;;;;6186593;23;20021;-84
2023/10/22 10:10:02;;;;;;;11.70;1.20;;;;;;;;;;6187274;23;20329;-84
2023/10/22 10:12:31;;;;;;;7.75;1.73;;;;;;;;;;6186144;23;20482;-84
2023/10/22 10:14:58;;;;;;;9.80;1.58;;;;;;;;;;6187221;23;20071;-84
2023/10/22 10:17:25;;;;;;;13.48;1.58;;;;;;;;;;6186553;23;20027;-84
2023/10/22 10:19:52;;;;;;;8.35;1.45;;;;;;;;;;6186753;23;20024;-84
2023/10/22 10:22:39;;;;;;;6.25;1.52;;;;;;;;;;6186018;23;20020;-84
2023/10/22 10:25:26;;;;;;;11.68;1.60;;;;;;;;;;6186622;23;20016;-84
2023/10/22 10:27:53;;;;;;;10.82;1.40;;;;;;;;;;6187037;23;20022;-84
2023/10/22 10:30:20;;;;;;;12.85;1.33;;;;;;;;;;6236168;23;20020;-84
2023/10/22 10:32:50;;;;;;;8.77;1.90;;;;;;;;;;6187053;23;20016;-84
2023/10/22 10:35:48;;;;;;;6.07;1.10;;;;;;;;;;6190064;23;20445;-84
2023/10/22 10:38:15;;;;;;;7.22;1.15;;;;;;;;;;6185928;23;20027;-85
2023/10/22 10:40:50;;;;;;;7.47;1.05;;;;;;;;;;6186796;23;20046;-84
2023/10/22 10:43:18;;;;;;;7.53;0.95;;;;;;;;;;6184851;23;20020;-84
2023/10/22 10:46:23;;;;;;;6.75;1.10;;;;;;;;;;6184655;23;20078;-84
2023/10/22 10:48:50;;;;;;;9.80;1.23;;;;;;;;;;6184052;23;20055;-84
2023/10/22 10:51:21;;;;;;;7.05;1.42;;;;;;;;;;6185636;23;20039;-84
2023/10/22 10:54:03;;;;;;;9.73;1.25;;;;;;;;;;6186392;23;20043;-84
2023/10/22 10:56:46;;;;;;;10.40;1.45;;;;;;;;;;6210803;23;20436;-84
2023/10/22 10:59:33;;;;;;;9.80;1.20;;;;;;;;;;6211518;23;20021;-84
2023/10/22 11:02:07;;;;;;;8.00;1.48;;;;;;;;;;6187027;23;20013;-84
2023/10/22 11:04:35;;;;;;;8.18;1.48;;;;;;;;;;6211913;23;20021;-84
2023/10/22 11:07:04;;;;;;;9.43;1.67;;;;;;;;;;6187432;23;20017;-85
2023/10/22 11:09:51;;;;;;;9.20;1.63;;;;;;;;;;6190548;23;20067;-85
2023/10/22 11:12:19;;;;;;;6.45;1.80;;;;;;;;;;6211151;23;20074;-84
2023/10/22 11:14:57;;;;;;;8.45;1.50;;;;;;;;;;6187313;23;20025;-89
2023/10/22 11:17:26;;;;;;;8.82;1.63;;;;;;;;;;6185339;23;20025;-86
2023/10/22 11:19:53;;;;;;;8.15;1.52;;;;;;;;;;6186855;23;20020;-84
2023/10/22 11:22:20;;;;;;;6.75;1.10;;;;;;;;;;6186111;23;20016;-84
2023/10/22 11:24:47;;;;;;;6.90;0.93;;;;;;;;;;6187226;23;20045;-84
2023/10/22 11:27:15;;;;;;;5.88;0.80;;;;;;;;;;6186323;23;20016;-84
2023/10/22 11:29:45;;;;;;;7.85;0.90;;;;;;;;;;6186957;23;20021;-84
2023/10/22 11:32:19;;;;;;;6.82;1.15;;;;;;;;;;6186285;23;20016;-84
2023/10/22 11:34:50;;;;;;;8.45;1.33;;;;;;;;;;6211960;23;20012;-86
2023/10/22 11:37:21;;;;;;;6.13;0.95;;;;;;;;;;6186164;23;20020;-86
2023/10/22 11:39:48;;;;;;;7.63;1.38;;;;;;;;;;6187079;23;20364;-85
2023/10/22 11:42:15;;;;;;;6.22;0.88;;;;;;;;;;6185898;23;20035;-86
2023/10/22 11:44:44;;;;;;;6.72;1.30;;;;;;;;;;6187331;23;20321;-86
2023/10/22 11:47:25;;;;;;;7.43;1.20;;;;;;;;;;6186375;23;20112;-86
2023/10/22 11:49:54;;;;;;;7.40;0.88;;;;;;;;;;6186846;23;20017;-85
2023/10/22 11:52:40;;;;;;;4.35;1.10;;;;;;;;;;6185951;23;20040;-85
2023/10/22 11:55:09;;;;;;;5.68;1.00;;;;;;;;;;6185390;23;20444;-87
2023/10/22 11:57:54;;;;;;;8.68;1.63;;;;;;;;;;6190650;23;20103;-86
2023/10/22 12:00:21;;;;;;;4.90;1.00;;;;;;;;;;6185767;23;20376;-86
2023/10/22 12:02:48;;;;;;;5.18;0.95;;;;;;;;;;6187184;23;20454;-86
2023/10/22 12:05:15;;;;;;;6.25;1.20;;;;;;;;;;6185990;23;20025;-87
2023/10/22 12:07:42;;;;;;;7.53;0.90;;;;;;;;;;6186428;23;20071;-86
2023/10/22 12:10:10;;;;;;;5.13;1.00;;;;;;;;;;6186626;23;20083;-86
2023/10/22 12:12:37;;;;;;;8.00;1.17;;;;;;;;;;6185902;23;20017;-86
2023/10/22 12:15:05;;;;;;;6.20;0.80;;;;;;;;;;6185454;23;20256;-86
2023/10/22 12:17:32;;;;;;;3.95;0.85;;;;;;;;;;6184445;23;20020;-86
2023/10/22 12:20:00;;;;;;;4.75;1.30;;;;;;;;;;6186172;23;20092;-86
2023/10/22 12:22:27;;;;;;;6.95;1.20;;;;;;;;;;6185120;23;20083;-88
2023/10/22 12:24:57;;;;;;;7.28;1.02;;;;;;;;;;6186200;23;20040;-87
2023/10/22 12:27:25;;;;;;;9.30;1.23;;;;;;;;;;6185567;23;20020;-87
2023/10/22 12:29:52;;;;;;;5.20;1.05;;;;;;;;;;6186027;23;20024;-88
2023/10/22 12:32:19;;;;;;;6.28;1.00;;;;;;;;;;6185353;23;20107;-87
2023/10/22 12:34:46;;;;;;;7.07;1.52;;;;;;;;;;6185911;23;20016;-86
2023/10/22 12:37:13;;;;;;;4.75;0.98;;;;;;;;;;6185423;23;20016;-87
2023/10/22 12:39:42;;;;;;;7.38;1.17;;;;;;;;;;6186151;23;20021;-87
2023/10/22 12:42:11;;;;;;;6.72;0.75;;;;;;;;;;6185086;23;20052;-86
2023/10/22 12:44:45;;;;;;;6.20;1.35;;;;;;;;;;6185856;23;20016;-88
2023/10/22 12:47:12;;;;;;;5.78;0.80;;;;;;;;;;6184947;23;20079;-88
2023/10/22 12:49:43;;;;;;;5.32;1.15;;;;;;;;;;6185316;23;20429;-86
2023/10/22 12:52:11;;;;;;;6.40;0.90;;;;;;;;;;6184648;23;20020;-88
2023/10/22 12:54:38;;;;;;;7.30;1.55;;;;;;;;;;6185765;23;20459;-87
2023/10/22 12:57:10;;;;;;;8.40;1.85;;;;;;;;;;6185664;23;20084;-87
2023/10/22 12:59:41;;;;;;;10.30;1.60;;;;;;;;;;6186029;23;20023;-87
2023/10/22 13:02:09;;;;;;;5.95;1.60;;;;;;;;;;6184547;23;20449;-87
2023/10/22 13:04:36;;;;;;;8.05;1.60;;;;;;;;;;6186100;23;20075;-88
2023/10/22 13:07:04;;;;;;;8.80;1.52;;;;;;;;;;6184262;23;20078;-86
2023/10/22 13:09:31;;;;;;;8.02;1.23;;;;;;;;;;6185070;23;20098;-87
2023/10/22 13:11:58;;;;;;;6.78;1.58;;;;;;;;;;6185764;23;20091;-88
2023/10/22 13:14:25;;;;;;;3.67;1.08;;;;;;;;;;6185164;23;20016;-88
2023/10/22 13:16:52;;;;;;;7.45;1.42;;;;;;;;;;6185715;23;20088;-88
2023/10/22 13:19:19;;;;;;;7.88;1.17;;;;;;;;;;6184004;23;20028;-88
2023/10/22 13:21:47;;;;;;;4.78;1.15;;;;;;;;;;6185348;23;20008;-86
2023/10/22 13:24:14;;;;;;;5.80;1.20;;;;;;;;;;6186381;23;20039;-88
2023/10/22 13:26:41;;;;;;;8.88;1.30;;;;;;;;;;6187394;23;20021;-88
2023/10/22 13:29:08;;;;;;;8.65;1.98;;;;;;;;;;6186508;23;20419;-88
2023/10/22 13:31:36;;;;;;;7.80;1.30;;;;;;;;;;6187596;23;20352;-87
2023/10/22 13:34:04;;;;;;;12.50;1.60;;;;;;;;;;6187805;23;20024;-88
2023/10/22 13:36:31;;;;;;;6.15;1.35;;;;;;;;;;6187129;23;20092;-89
2023/10/22 13:38:59;;;;;;;10.18;1.85;;;;;;;;;;6187495;23;20013;-88
2023/10/22 13:41:26;;;;;;;9.32;1.80;;;;;;;;;;6187143;23;20099;-87
2023/10/22 13:43:53;;;;;;;10.82;2.22;;;;;;;;;;6187415;23;20036;-88
2023/10/22 13:46:20;;;;;;;8.27;1.80;;;;;;;;;;6186582;23;20067;-88
2023/10/22 13:48:47;;;;;;;9.73;1.63;;;;;;;;;;6187414;23;20008;-88
2023/10/22 13:51:14;;;;;;;11.75;2.20;;;;;;;;;;6186344;23;20021;-89
2023/10/22 13:53:41;;;;;;;7.10;1.60;;;;;;;;;;6211601;23;20336;-87
2023/10/22 13:56:08;;;;;;;11.68;2.10;;;;;;;;;;6185855;23;20252;-88
2023/10/22 13:58:35;;;;;;;6.25;1.35;;;;;;;;;;6186741;23;20381;-88
2023/10/22 14:01:02;;;;;;;7.40;1.27;;;;;;;;;;6187115;23;20012;-88
2023/10/22 14:03:29;;;;;;;9.30;1.70;;;;;;;;;;6186568;23;20311;-88
2023/10/22 14:05:56;;;;;;;10.32;1.50;;;;;;;;;;6187198;23;20055;-88
2023/10/22 14:08:23;;;;;;;6.20;1.58;;;;;;;;;;6185958;23;20017;-87
2023/10/22 14:10:50;;;;;;;7.90;1.60;;;;;;;;;;6186950;23;20028;-88
2023/10/22 14:13:18;;;;;;;7.65;1.88;;;;;;;;;;6186401;23;20021;-87
2023/10/22 14:15:48;;;;;;;10.32;1.85;;;;;;;;;;6169519;23;20119;-93
2023/10/22 14:18:15;;;;;;;8.85;1.80;;;;;;;;;;6171085;23;20024;-89
2023/10/22 14:20:43;;;;;;;17.02;2.95;;;;;;;;;;6182325;23;20456;-88
2023/10/22 14:23:12;;;;;;;5.43;1.30;;;;;;;;;;6173444;23;20425;-89
2023/10/22 14:25:39;;;;;;;6.57;1.67;;;;;;;;;;6187223;23;20377;-89
2023/10/22 14:28:07;;;;;;;8.60;1.40;;;;;;;;;;6185401;23;20091;-89
2023/10/22 14:30:34;;;;;;;7.47;1.35;;;;;;;;;;6185642;23;20016;-90
2023/10/22 14:33:01;;;;;;;7.43;1.85;;;;;;;;;;6185309;23;20464;-88
2023/10/22 14:35:28;;;;;;;5.97;1.52;;;;;;;;;;6185444;23;20016;-88
2023/10/22 14:37:55;;;;;;;7.72;2.00;;;;;;;;;;6187048;23;20079;-89
2023/10/22 14:40:23;;;;;;;12.07;2.45;;;;;;;;;;6185881;23;20017;-88
2023/10/22 14:42:54;;;;;;;11.43;1.90;;;;;;;;;;6187165;23;20021;-89
2023/10/22 14:45:21;;;;;;;7.93;1.58;;;;;;;;;;6185771;23;20016;-88
2023/10/22 14:47:48;;;;;;;8.00;1.77;;;;;;;;;;6186899;23;20028;-89
2023/10/22 14:50:15;;;;;;;7.20;1.67;;;;;;;;;;6185917;23;20098;-89
2023/10/22 14:52:42;;;;;;;10.20;2.38;;;;;;;;;;6186505;23;20302;-89
2023/10/22 14:55:09;;;;;;;9.70;1.80;;;;;;;;;;6186344;23;20047;-88
2023/10/22 14:57:36;;;;;;;7.53;1.85;;;;;;;;;;6186967;23;20019;-88
2023/10/22 15:00:04;;;;;;;7.05;1.65;;;;;;;;;;6186071;23;20091;-89
2023/10/22 15:02:31;;;;;;;8.18;1.75;;;;;;;;;;6185953;23;20082;-89
2023/10/22 15:04:58;;;;;;;7.18;1.58;;;;;;;;;;6187098;23;20024;-89
2023/10/22 15:07:27;;;;;;;6.55;1.30;;;;;;;;;;6186258;23;20025;-89
2023/10/22 15:09:55;;;;;;;7.28;1.60;;;;;;;;;;6186896;23;20036;-88
2023/10/22 15:12:22;;;;;;;9.20;1.27;;;;;;;;;;6186436;23;20337;-88
2023/10/22 15:14:49;;;;;;;9.27;1.70;;;;;;;;;;6186380;23;20043;-89
2023/10/22 15:17:16;;;;;;;12.30;1.75;;;;;;;;;;6185522;23;20519;-89
2023/10/22 15:19:43;;;;;;;6.25;1.60;;;;;;;;;;6187137;23;20032;-89
2023/10/22 15:22:10;;;;;;;9.82;1.42;;;;;;;;;;6210215;23;20024;-88
2023/10/22 15:24:39;;;;;;;5.60;1.80;;;;;;;;;;6186523;23;20012;-88
2023/10/22 15:27:06;;;;;;;12.13;1.85;;;;;;;;;;6185970;23;20023;-89
2023/10/22 15:29:33;;;;;;;10.35;1.73;;;;;;;;;;6185585;23;20043;-89
2023/10/22 15:32:01;;;;;;;9.05;1.20;;;;;;;;;;6186504;23;20456;-90
2023/10/22 15:34:28;;;;;;;9.73;2.67;;;;;;;;;;6185155;23;20048;-89
2023/10/22 15:36:56;;;;;;;11.25;2.40;;;;;;;;;;6186029;23;20084;-89
2023/10/22 15:39:23;;;;;;;7.78;2.53;;;;;;;;;;6184965;23;20020;-87
2023/10/22 15:41:51;;;;;;;9.32;1.90;;;;;;;;;;6185526;23;20025;-89
2023/10/22 15:44:17;;;;;;;9.85;2.05;;;;;;;;;;6185043;23;20024;-88
2023/10/22 15:46:44;;;;;;;7.63;1.60;;;;;;;;;;6185537;23;20023;-88
2023/10/22 15:49:11;;;;;;;9.82;1.83;;;;;;;;;;6185595;23;20476;-88
2023/10/22 15:51:38;;;;;;;11.48;1.77;;;;;;;;;;6185721;23;20303;-88
2023/10/22 15:54:06;;;;;;;6.93;1.30;;;;;;;;;;6185374;23;20048;-88
2023/10/22 15:56:33;;;;;;;5.38;1.20;;;;;;;;;;6186214;23;20020;-88
2023/10/22 15:59:02;;;;;;;8.63;1.67;;;;;;;;;;6185823;23;20373;-89
2023/10/22 16:01:29;;;;;;;9.18;1.67;;;;;;;;;;6185068;23;20017;-88
2023/10/22 16:03:56;;;;;;;11.00;1.48;;;;;;;;;;6186049;23;20012;-88
2023/10/22 16:06:23;;;;;;;8.65;1.20;;;;;;;;;;6185213;23;20022;-89
2023/10/22 16:08:50;;;;;;;7.40;1.83;;;;;;;;;;6186205;23;20044;-88
2023/10/22 16:11:17;;;;;;;6.03;1.75;;;;;;;;;;6184962;23;20017;-87
2023/10/22 16:13:44;;;;;;;8.80;3.30;;;;;;;;;;6185920;23;20016;-87
2023/10/22 16:16:11;;;;;;;7.28;1.92;;;;;;;;;;6185378;23;20499;-87
2023/10/22 16:18:38;;;;;;;7.93;1.80;;;;;;;;;;6186014;23;20019;-87
2023/10/22 16:21:05;;;;;;;11.23;1.90;;;;;;;;;;6185110;23;20364;-88
2023/10/22 16:23:32;;;;;;;11.23;2.88;;;;;;;;;;6185834;23;20035;-87
2023/10/22 16:25:59;;;;;;;8.32;2.65;;;;;;;;;;6186234;23;20088;-87
2023/10/22 16:28:26;;;;;;;8.68;2.10;;;;;;;;;;6185313;23;20329;-87
2023/10/22 16:30:55;;;;;;;9.75;1.77;;;;;;;;;;6186087;23;20020;-88
2023/10/22 16:33:22;;;;;;;9.75;1.70;;;;;;;;;;6185842;23;20408;-88
2023/10/22 16:35:49;;;;;;;13.55;2.83;;;;;;;;;;6185741;23;20433;-87
2023/10/22 16:38:16;;;;;;;9.95;1.63;;;;;;;;;;6185529;23;20103;-87
2023/10/22 16:40:43;;;;;;;7.20;1.90;;;;;;;;;;6185591;23;20055;-87
2023/10/22 16:43:10;;;;;;;10.80;1.75;;;;;;;;;;6184830;23;20024;-87
2023/10/22 16:45:37;;;;;;;11.90;1.63;;;;;;;;;;6185462;23;20020;-88
2023/10/22 16:48:04;;;;;;;8.60;1.55;;;;;;;;;;6185397;23;20503;-86
2023/10/22 16:50:32;;;;;;;12.60;3.35;;;;;;;;;;6185257;23;20328;-86
2023/10/22 16:52:59;;;;;;;12.75;4.78;;;;;;;;;;6185375;23;20016;-87
2023/10/22 16:55:26;;;;;;;8.48;2.67;;;;;;;;;;6185463;23;20035;-87
2023/10/22 16:57:53;;;;;;;9.25;1.77;;;;;;;;;;6185369;23;20075;-87
2023/10/22 17:00:20;;;;;;;10.80;2.22;;;;;;;;;;6186750;23;20020;-87
2023/10/22 17:02:47;;;;;;;10.15;1.63;;;;;;;;;;6187604;23;20009;-87
2023/10/22 17:05:14;;;;;;;6.68;1.38;;;;;;;;;;6187568;23;20043;-87
2023/10/22 17:07:41;;;;;;;9.70;1.63;;;;;;;;;;6187684;23;20023;-86
2023/10/22 17:10:12;;;;;;;16.60;1.90;;;;;;;;;;6186932;23;20080;-87